Time;durP1;ratioP1;P1;durP2;ratioP2;P2;SDS_P1;SDS_P2;PMS_P1;PMS_P2;Temp;Humidity;BMP_temperature;BMP_pressure;BME280_temperature;BME280_humidity;BME280_pressure;Samples;Min_cycle;Max_cycle;Signal;HPM_P1;HPM_P2
2023/12/14 00:01:22;;;;;;;0.30;0.20;;;15.80;55.90;;;;;;5033788;28;20049;-69
2023/12/14 00:03:48;;;;;;;0.60;0.30;;;15.80;55.90;;;;;;5033879;28;20128;-70
2023/12/14 00:06:14;;;;;;;0.55;0.20;;;15.80;55.90;;;;;;5051378;28;20033;-70
2023/12/14 00:08:40;;;;;;;0.30;0.20;;;15.80;55.90;;;;;;5033595;28;20041;-69
2023/12/14 00:11:07;;;;;;;0.57;0.30;;;15.80;55.90;;;;;;5033394;28;20045;-68
2023/12/14 00:13:33;;;;;;;0.65;0.30;;;15.70;55.80;;;;;;5033736;28;20451;-68
2023/12/14 00:15:59;;;;;;;0.63;0.30;;;15.80;55.90;;;;;;5033156;28;20084;-70
2023/12/14 00:18:25;;;;;;;0.45;0.30;;;15.80;55.90;;;;;;5032825;28;20055;-70
2023/12/14 00:20:51;;;;;;;0.55;0.28;;;15.70;55.80;;;;;;5033513;28;20037;-68
2023/12/14 00:23:16;;;;;;;0.60;0.22;;;15.70;55.80;;;;;;5033608;28;20388;-71
2023/12/14 00:25:42;;;;;;;0.40;0.20;;;15.70;55.90;;;;;;5035582;28;20045;-68
2023/12/14 00:28:11;;;;;;;0.40;0.20;;;15.70;55.90;;;;;;5036895;28;20041;-70
2023/12/14 00:30:40;;;;;;;1.45;0.30;;;15.70;55.80;;;;;;5054581;28;20492;-68
2023/12/14 00:33:06;;;;;;;0.40;0.25;;;15.70;55.90;;;;;;5053495;28;20507;-70
2023/12/14 00:35:31;;;;;;;0.40;0.30;;;15.70;55.80;;;;;;5036620;28;20041;-69
2023/12/14 00:37:57;;;;;;;0.60;0.30;;;15.70;55.80;;;;;;5036704;28;20041;-69
2023/12/14 00:40:23;;;;;;;0.32;0.20;;;15.70;55.80;;;;;;5054667;28;20048;-70
2023/12/14 00:42:48;;;;;;;0.60;0.30;;;15.70;55.80;;;;;;5054603;28;20033;-69
2023/12/14 00:45:14;;;;;;;0.50;0.30;;;15.70;55.80;;;;;;5036747;28;20036;-69
2023/12/14 00:47:40;;;;;;;0.43;0.30;;;15.70;55.80;;;;;;5036822;28;20658;-69
2023/12/14 00:50:06;;;;;;;0.52;0.20;;;15.70;55.80;;;;;;5036617;28;20047;-69
2023/12/14 00:52:31;;;;;;;0.52;0.30;;;15.70;55.80;;;;;;5054377;28;20557;-69
2023/12/14 00:54:57;;;;;;;0.47;0.32;;;15.70;55.80;;;;;;5036405;28;20041;-69
2023/12/14 00:57:23;;;;;;;0.40;0.20;;;15.70;55.80;;;;;;5054188;28;20120;-69
2023/12/14 00:59:48;;;;;;;0.65;0.30;;;15.70;55.80;;;;;;5036342;28;20043;-69
2023/12/14 01:02:14;;;;;;;0.50;0.30;;;15.60;55.80;;;;;;5054269;28;20048;-69
2023/12/14 01:04:40;;;;;;;0.40;0.20;;;15.60;55.80;;;;;;5036410;28;20041;-68
2023/12/14 01:07:05;;;;;;;0.40;0.30;;;15.60;55.80;;;;;;5036443;28;20037;-68
2023/12/14 01:09:31;;;;;;;0.50;0.30;;;15.60;56.50;;;;;;5036529;28;20037;-69
2023/12/14 01:11:56;;;;;;;0.45;0.20;;;15.60;55.80;;;;;;5036652;28;20095;-70
2023/12/14 01:14:22;;;;;;;0.32;0.20;;;15.60;55.70;;;;;;5036074;28;20538;-70
2023/12/14 01:16:48;;;;;;;0.50;0.20;;;15.70;55.60;;;;;;5035826;28;20041;-69
2023/12/14 01:19:16;;;;;;;0.40;0.20;;;16.00;55.00;;;;;;5036018;28;20142;-69
2023/12/14 01:21:42;;;;;;;0.38;0.17;;;16.50;54.00;;;;;;5053746;28;20068;-69
2023/12/14 01:24:08;;;;;;;0.68;0.20;;;17.10;52.60;;;;;;5052278;28;20138;-69
2023/12/14 01:26:33;;;;;;;0.30;0.20;;;17.80;51.00;;;;;;5053340;28;20047;-68
2023/12/14 01:28:59;;;;;;;0.35;0.20;;;18.60;49.20;;;;;;5052036;28;20041;-68
2023/12/14 01:31:25;;;;;;;0.68;0.20;;;19.50;47.30;;;;;;5052730;28;20041;-69
2023/12/14 01:33:52;;;;;;;0.73;0.10;;;20.40;45.40;;;;;;5035106;28;20099;-69
2023/12/14 01:36:29;;;;;;;0.50;0.20;;;21.20;43.70;;;;;;5035280;28;20064;-69
2023/12/14 01:38:54;;;;;;;0.30;0.10;;;21.90;42.50;;;;;;5051772;28;20045;-69
2023/12/14 01:41:22;;;;;;;0.30;0.10;;;22.30;41.20;;;;;;5068613;28;20144;-69
2023/12/14 01:43:48;;;;;;;0.30;0.20;;;22.60;40.60;;;;;;5052927;28;20529;-69
2023/12/14 01:46:16;;;;;;;0.20;0.10;;;22.70;40.30;;;;;;5052559;28;20043;-69
2023/12/14 01:48:42;;;;;;;0.20;0.10;;;22.70;40.10;;;;;;5034929;28;20045;-69
2023/12/14 01:51:08;;;;;;;0.98;0.15;;;22.60;40.20;;;;;;5052927;28;20453;-69
2023/12/14 01:53:33;;;;;;;0.20;0.10;;;22.50;40.40;;;;;;5052748;28;20533;-69
2023/12/14 01:55:59;;;;;;;0.30;0.10;;;22.30;40.70;;;;;;5035205;28;20503;-69
2023/12/14 01:58:27;;;;;;;0.60;0.17;;;22.10;41.00;;;;;;5051596;28;20048;-69
2023/12/14 02:01:15;;;;;;;0.32;0.20;;;21.80;41.40;;;;;;5051770;28;20076;-69
2023/12/14 02:03:51;;;;;;;0.22;0.20;;;21.50;41.90;;;;;;5053092;28;20043;-69
2023/12/14 02:06:16;;;;;;;0.20;0.10;;;21.30;42.40;;;;;;5052289;28;20430;-69
2023/12/14 02:08:42;;;;;;;0.38;0.20;;;21.00;42.80;;;;;;5034788;28;20048;-69
2023/12/14 02:11:08;;;;;;;0.30;0.20;;;20.80;43.30;;;;;;5034883;28;20480;-68
2023/12/14 02:13:33;;;;;;;0.28;0.13;;;20.50;43.70;;;;;;5035459;28;20488;-72
2023/12/14 02:15:59;;;;;;;0.28;0.10;;;20.30;44.20;;;;;;5051440;28;20392;-69
2023/12/14 02:18:25;;;;;;;0.30;0.10;;;20.10;44.50;;;;;;5052260;28;20056;-69
2023/12/14 02:20:51;;;;;;;0.30;0.10;;;19.90;44.90;;;;;;5034569;28;20045;-68
2023/12/14 02:23:17;;;;;;;0.20;0.10;;;19.70;45.20;;;;;;5034791;28;20051;-68
2023/12/14 02:25:42;;;;;;;0.60;0.10;;;19.50;45.60;;;;;;5034989;28;20479;-69
2023/12/14 02:28:08;;;;;;;0.30;0.10;;;19.40;45.90;;;;;;5034567;28;20044;-68
2023/12/14 02:30:34;;;;;;;0.40;0.13;;;19.30;46.20;;;;;;5034857;28;20067;-69
2023/12/14 02:32:59;;;;;;;0.22;0.10;;;19.10;46.50;;;;;;5052399;28;20137;-68
2023/12/14 02:35:25;;;;;;;0.20;0.10;;;19.00;46.70;;;;;;5034544;28;20041;-69
2023/12/14 02:37:54;;;;;;;0.40;0.20;;;18.90;47.00;;;;;;5052274;28;20132;-68
2023/12/14 02:40:22;;;;;;;0.38;0.30;;;18.70;47.10;;;;;;5052360;28;20399;-69
2023/12/14 02:42:48;;;;;;;0.20;0.10;;;18.60;47.40;;;;;;5052058;28;20059;-68
2023/12/14 02:45:13;;;;;;;0.50;0.20;;;18.50;47.70;;;;;;5034308;28;20480;-69
2023/12/14 02:47:39;;;;;;;1.05;0.20;;;18.40;48.00;;;;;;5050991;28;20428;-68
2023/12/14 02:50:05;;;;;;;0.40;0.20;;;18.30;48.00;;;;;;5033724;28;20040;-69
2023/12/14 02:52:31;;;;;;;1.13;0.13;;;18.30;48.30;;;;;;5052009;28;20036;-69
2023/12/14 02:54:57;;;;;;;0.52;0.20;;;18.30;48.30;;;;;;5034275;28;20506;-68
2023/12/14 02:57:22;;;;;;;0.45;0.20;;;18.30;48.00;;;;;;5051802;28;20087;-69
2023/12/14 02:59:48;;;;;;;0.40;0.15;;;18.50;47.80;;;;;;5034248;28;20041;-68
2023/12/14 03:02:13;;;;;;;0.30;0.20;;;18.70;47.40;;;;;;5034113;28;20540;-69
2023/12/14 03:04:39;;;;;;;0.43;0.15;;;18.80;47.00;;;;;;5034106;28;20132;-69
2023/12/14 03:07:05;;;;;;;0.43;0.20;;;19.00;46.70;;;;;;5034309;28;20581;-68
2023/12/14 03:09:31;;;;;;;0.20;0.20;;;19.00;46.50;;;;;;5051889;28;20495;-68
2023/12/14 03:11:57;;;;;;;0.43;0.20;;;19.10;46.30;;;;;;5051932;28;20037;-68
2023/12/14 03:14:23;;;;;;;0.35;0.20;;;19.10;46.20;;;;;;5033822;28;20041;-68
2023/12/14 03:16:48;;;;;;;0.47;0.20;;;19.20;46.00;;;;;;5033615;28;20109;-69
2023/12/14 03:19:15;;;;;;;0.30;0.15;;;19.20;45.90;;;;;;5033526;28;20037;-69
2023/12/14 03:21:41;;;;;;;0.40;0.10;;;19.20;45.90;;;;;;5034120;28;20072;-68
2023/12/14 03:24:07;;;;;;;1.00;0.20;;;19.20;46.00;;;;;;5034094;28;20041;-69
2023/12/14 03:26:35;;;;;;;0.30;0.10;;;19.10;46.00;;;;;;5034154;28;20033;-68
2023/12/14 03:29:02;;;;;;;0.40;0.20;;;19.00;46.10;;;;;;5051747;28;20053;-68
2023/12/14 03:31:27;;;;;;;0.77;0.20;;;19.00;46.20;;;;;;5034069;28;20540;-69
2023/12/14 03:33:53;;;;;;;0.77;0.10;;;18.90;46.20;;;;;;5033967;28;20120;-69
2023/12/14 03:36:19;;;;;;;0.30;0.10;;;18.80;46.40;;;;;;5033980;28;20045;-69
2023/12/14 03:38:44;;;;;;;0.40;0.10;;;18.80;46.60;;;;;;5034005;28;20364;-69
2023/12/14 03:41:10;;;;;;;0.25;0.10;;;18.70;46.70;;;;;;5051681;28;20048;-68
2023/12/14 03:43:35;;;;;;;0.40;0.20;;;18.60;46.80;;;;;;5033775;28;20124;-69
2023/12/14 03:46:01;;;;;;;0.63;0.10;;;18.60;47.00;;;;;;5033544;28;20410;-69
2023/12/14 03:48:27;;;;;;;0.63;0.20;;;18.50;47.00;;;;;;5033733;28;20041;-68
2023/12/14 03:50:52;;;;;;;0.70;0.20;;;18.50;47.80;;;;;;5051634;28;20037;-70
2023/12/14 03:53:18;;;;;;;0.73;0.10;;;18.50;47.20;;;;;;5033720;28;20045;-68
2023/12/14 03:55:45;;;;;;;0.32;0.15;;;18.50;47.20;;;;;;5033789;28;20045;-68
2023/12/14 03:58:11;;;;;;;0.30;0.10;;;18.40;47.20;;;;;;5051435;28;20076;-69
2023/12/14 04:00:37;;;;;;;0.28;0.10;;;18.40;47.20;;;;;;5053366;28;20095;-68
2023/12/14 04:03:03;;;;;;;0.50;0.20;;;18.40;47.20;;;;;;5037706;28;20369;-69
2023/12/14 04:05:31;;;;;;;0.40;0.20;;;18.40;47.20;;;;;;5037540;28;20049;-69
2023/12/14 04:07:57;;;;;;;0.30;0.10;;;18.40;47.00;;;;;;5055312;28;20377;-69
2023/12/14 04:10:22;;;;;;;0.40;0.10;;;18.50;47.00;;;;;;5037385;28;20040;-69
2023/12/14 04:12:48;;;;;;;0.63;0.15;;;18.50;47.80;;;;;;5055220;28;20496;-68
2023/12/14 04:15:13;;;;;;;0.50;0.20;;;18.50;46.90;;;;;;5037514;28;20052;-69
2023/12/14 04:17:39;;;;;;;0.28;0.15;;;18.50;46.90;;;;;;5036813;28;20053;-69
2023/12/14 04:20:06;;;;;;;0.30;0.10;;;18.50;46.80;;;;;;5036986;28;20033;-69
2023/12/14 04:22:32;;;;;;;0.30;0.10;;;18.50;46.70;;;;;;5036917;28;20041;-68
2023/12/14 04:24:57;;;;;;;0.20;0.10;;;18.60;47.40;;;;;;5053628;28;20399;-68
2023/12/14 04:27:27;;;;;;;0.65;0.17;;;18.60;46.60;;;;;;5036973;28;20040;-69
2023/12/14 04:29:52;;;;;;;0.20;0.10;;;18.60;46.60;;;;;;5036848;28;20132;-69
2023/12/14 04:32:18;;;;;;;0.10;0.10;;;18.60;46.50;;;;;;5037040;28;20128;-69
2023/12/14 04:34:44;;;;;;;0.43;0.10;;;18.60;46.50;;;;;;5036906;28;20049;-69
2023/12/14 04:37:09;;;;;;;0.38;0.10;;;18.60;46.40;;;;;;5054540;28;20120;-68
2023/12/14 04:39:35;;;;;;;0.52;0.13;;;18.60;46.40;;;;;;5054578;28;20137;-69
2023/12/14 04:42:01;;;;;;;0.30;0.20;;;18.60;46.40;;;;;;5036584;28;20041;-69
2023/12/14 04:44:26;;;;;;;0.20;0.15;;;18.60;46.30;;;;;;5036564;28;20052;-69
2023/12/14 04:46:52;;;;;;;0.52;0.13;;;18.60;46.30;;;;;;5054810;28;20037;-69
2023/12/14 04:49:19;;;;;;;0.38;0.13;;;18.60;46.30;;;;;;5036271;28;20376;-70
2023/12/14 04:51:45;;;;;;;0.17;0.10;;;18.60;46.30;;;;;;5035780;28;20045;-69
2023/12/14 04:54:10;;;;;;;0.55;0.20;;;18.60;46.30;;;;;;5035720;28;20510;-69
2023/12/14 04:56:36;;;;;;;0.35;0.13;;;18.50;46.30;;;;;;5053657;28;20167;-69
2023/12/14 04:59:02;;;;;;;0.40;0.20;;;18.50;46.30;;;;;;5035619;28;20120;-69
2023/12/14 05:01:28;;;;;;;0.85;0.20;;;18.60;46.40;;;;;;5036088;28;20036;-70
2023/12/14 05:03:53;;;;;;;0.35;0.13;;;18.50;46.30;;;;;;5035442;28;20485;-69
2023/12/14 05:06:19;;;;;;;0.60;0.20;;;18.50;46.30;;;;;;5035730;28;20041;-69
2023/12/14 05:08:45;;;;;;;0.40;0.20;;;18.50;46.30;;;;;;5035389;28;20036;-69
2023/12/14 05:11:12;;;;;;;0.20;0.10;;;18.50;46.40;;;;;;5035630;28;20534;-68
2023/12/14 05:13:38;;;;;;;0.38;0.10;;;18.60;46.40;;;;;;5036249;28;20045;-68
2023/12/14 05:16:04;;;;;;;0.30;0.10;;;18.50;46.30;;;;;;5035449;28;20502;-71
2023/12/14 05:18:30;;;;;;;0.70;0.13;;;18.50;46.20;;;;;;5019499;28;20132;-69
2023/12/14 05:20:55;;;;;;;0.60;0.20;;;18.60;46.30;;;;;;5033840;28;20100;-69
2023/12/14 05:23:21;;;;;;;0.22;0.15;;;18.60;46.20;;;;;;5016443;28;20038;-69
2023/12/14 05:25:47;;;;;;;0.93;0.20;;;18.60;46.10;;;;;;5016274;28;20120;-69
2023/12/14 05:28:13;;;;;;;0.50;0.17;;;18.60;46.00;;;;;;5015765;28;20049;-69
2023/12/14 05:30:42;;;;;;;0.55;0.10;;;18.60;46.00;;;;;;5032369;28;20038;-70
2023/12/14 05:33:07;;;;;;;0.20;0.10;;;18.60;46.00;;;;;;5016035;28;20077;-69
2023/12/14 05:35:33;;;;;;;0.45;0.10;;;18.60;45.90;;;;;;5032574;28;20135;-69
2023/12/14 05:38:00;;;;;;;0.20;0.10;;;18.60;45.90;;;;;;5033536;28;20033;-69
2023/12/14 05:40:26;;;;;;;1.02;0.85;;;18.60;45.80;;;;;;5015961;28;20503;-69
2023/12/14 05:42:51;;;;;;;0.40;0.20;;;18.60;45.80;;;;;;5033499;28;20033;-69
2023/12/14 05:45:18;;;;;;;0.40;0.10;;;18.60;45.80;;;;;;5033456;28;20401;-68
2023/12/14 05:47:44;;;;;;;0.63;0.25;;;18.60;45.90;;;;;;5015742;28;20049;-69
2023/12/14 05:50:10;;;;;;;0.20;0.10;;;18.60;45.80;;;;;;5033445;28;20476;-69
2023/12/14 05:52:37;;;;;;;0.25;0.10;;;18.60;45.80;;;;;;5015696;28;20049;-69
2023/12/14 05:55:04;;;;;;;0.47;0.10;;;18.60;45.90;;;;;;5015818;28;20420;-68
2023/12/14 05:57:29;;;;;;;0.20;0.10;;;18.60;45.90;;;;;;5033022;28;20099;-68
2023/12/14 05:59:55;;;;;;;0.50;0.10;;;18.60;45.90;;;;;;5015577;28;20263;-69
2023/12/14 06:02:21;;;;;;;0.73;0.20;;;18.50;45.90;;;;;;5015410;28;20048;-69
2023/12/14 06:04:46;;;;;;;0.57;0.10;;;18.50;45.90;;;;;;5015533;28;20080;-69
2023/12/14 06:07:15;;;;;;;0.40;0.10;;;18.50;46.00;;;;;;5031594;28;20101;-69
2023/12/14 06:09:41;;;;;;;0.30;0.10;;;18.50;46.00;;;;;;5015152;28;20045;-69
2023/12/14 06:12:06;;;;;;;0.20;0.15;;;18.50;46.00;;;;;;5015158;28;20087;-69
2023/12/14 06:14:32;;;;;;;0.32;0.10;;;18.50;46.00;;;;;;5015215;28;20054;-69
2023/12/14 06:16:58;;;;;;;0.20;0.10;;;18.50;46.00;;;;;;5018450;28;20049;-69
2023/12/14 06:19:24;;;;;;;0.10;0.10;;;18.40;46.00;;;;;;5052466;28;20451;-69
2023/12/14 06:21:50;;;;;;;0.73;0.10;;;18.40;46.00;;;;;;5052604;28;20138;-70
2023/12/14 06:24:20;;;;;;;0.50;0.10;;;18.40;46.10;;;;;;5034435;28;20040;-69
2023/12/14 06:26:46;;;;;;;0.20;0.10;;;18.40;46.10;;;;;;5050621;28;20036;-71
2023/12/14 06:29:12;;;;;;;0.70;0.40;;;18.50;46.20;;;;;;5021622;28;20048;-70
2023/12/14 06:31:39;;;;;;;1.40;0.82;;;19.00;45.80;;;;;;5014751;28;20068;-70
2023/12/14 06:34:06;;;;;;;1.98;1.50;;;19.90;44.80;;;;;;5009700;28;20421;-71
2023/12/14 06:36:34;;;;;;;2.40;1.63;;;20.70;43.20;;;;;;5026034;28;20427;-71
2023/12/14 06:39:01;;;;;;;2.97;1.90;;;21.50;41.50;;;;;;5012436;28;20045;-70
2023/12/14 06:41:28;;;;;;;3.05;1.30;;;22.30;39.80;;;;;;5030392;28;20480;-72
2023/12/14 06:43:55;;;;;;;2.22;0.70;;;22.90;38.50;;;;;;5012761;28;20188;-69
2023/12/14 06:46:21;;;;;;;1.67;0.65;;;23.40;38.00;;;;;;5030903;28;20711;-70
2023/12/14 06:48:47;;;;;;;1.80;0.70;;;23.60;38.10;;;;;;5013626;28;20500;-69
2023/12/14 06:51:13;;;;;;;1.80;0.70;;;23.80;38.00;;;;;;5030858;28;20397;-70
2023/12/14 06:53:44;;;;;;;1.83;0.85;;;23.80;38.00;;;;;;5031666;28;20040;-70
2023/12/14 06:56:10;;;;;;;0.80;0.40;;;23.80;38.00;;;;;;5009588;28;20033;-71
2023/12/14 06:58:38;;;;;;;0.60;0.30;;;23.80;37.90;;;;;;5008927;28;20368;-70
2023/12/14 07:01:05;;;;;;;2.65;0.45;;;23.90;37.80;;;;;;5007402;28;20112;-76
2023/12/14 07:03:30;;;;;;;1.20;0.70;;;23.90;37.80;;;;;;5012344;28;20041;-70
2023/12/14 07:05:56;;;;;;;2.40;0.40;;;23.80;37.70;;;;;;5029196;28;20033;-71
2023/12/14 07:08:21;;;;;;;1.27;0.40;;;23.80;37.70;;;;;;5032869;28;20507;-71
2023/12/14 07:10:47;;;;;;;1.17;0.20;;;23.90;37.30;;;;;;5035631;28;20124;-71
2023/12/14 07:13:15;;;;;;;0.57;0.20;;;24.00;37.50;;;;;;5043930;28;20037;-72
2023/12/14 07:15:41;;;;;;;0.60;0.20;;;24.10;37.70;;;;;;5047653;28;20139;-72
2023/12/14 07:18:07;;;;;;;1.05;0.20;;;24.20;37.70;;;;;;5040089;28;20136;-68
2023/12/14 07:20:33;;;;;;;0.65;0.20;;;24.40;37.80;;;;;;5032945;28;20390;-68
2023/12/14 07:22:58;;;;;;;1.15;0.10;;;24.70;37.40;;;;;;5034944;28;20040;-69
2023/12/14 07:25:24;;;;;;;2.38;0.20;;;25.20;36.90;;;;;;5051596;28;20041;-72
2023/12/14 07:27:50;;;;;;;0.55;0.15;;;25.70;36.40;;;;;;5036322;28;20049;-68
2023/12/14 07:30:19;;;;;;;1.00;0.10;;;26.10;36.00;;;;;;5045792;28;20068;-68
2023/12/14 07:32:45;;;;;;;0.73;0.20;;;26.40;35.60;;;;;;5046643;28;20038;-67
2023/12/14 07:35:11;;;;;;;0.70;0.17;;;26.30;35.00;;;;;;5024075;28;20567;-69
2023/12/14 07:37:36;;;;;;;1.88;0.50;;;26.00;34.90;;;;;;5024756;28;20095;-72
2023/12/14 07:40:03;;;;;;;3.75;0.68;;;25.60;35.10;;;;;;5022115;28;20606;-68
2023/12/14 07:42:32;;;;;;;1.17;0.80;;;25.20;35.10;;;;;;5029045;28;20565;-73
2023/12/14 07:44:57;;;;;;;3.25;1.55;;;24.90;35.20;;;;;;5029183;28;20420;-68
2023/12/14 07:47:26;;;;;;;2.33;0.90;;;24.60;35.30;;;;;;5028442;28;20040;-68
2023/12/14 07:49:51;;;;;;;2.20;0.52;;;24.40;35.50;;;;;;5033775;28;20127;-67
2023/12/14 07:52:20;;;;;;;2.17;0.52;;;24.40;35.80;;;;;;5029968;28;20172;-70
2023/12/14 07:54:46;;;;;;;3.33;0.55;;;24.30;36.10;;;;;;5029944;28;20615;-70
2023/12/14 07:57:12;;;;;;;2.00;0.50;;;24.50;36.20;;;;;;5044946;28;20056;-71
2023/12/14 07:59:37;;;;;;;3.60;0.50;;;24.80;35.90;;;;;;5047800;28;20056;-68
2023/12/14 08:02:03;;;;;;;2.53;0.40;;;24.80;35.90;;;;;;5030033;28;20037;-73
2023/12/14 08:04:28;;;;;;;2.65;0.30;;;25.10;36.00;;;;;;5025415;28;20581;-68
2023/12/14 08:06:54;;;;;;;0.73;0.28;;;25.60;35.70;;;;;;5025555;28;20041;-68
2023/12/14 08:09:20;;;;;;;3.15;0.20;;;26.00;35.20;;;;;;5043208;28;20034;-69
2023/12/14 08:11:46;;;;;;;0.82;0.20;;;26.20;35.00;;;;;;5046352;28;20040;-68
2023/12/14 08:14:14;;;;;;;1.90;0.10;;;26.40;35.00;;;;;;5057170;28;20045;-68
2023/12/14 08:16:40;;;;;;;1.10;0.20;;;26.50;35.00;;;;;;5021794;28;20140;-70
2023/12/14 08:19:08;;;;;;;1.23;0.13;;;26.40;35.10;;;;;;5019673;28;20093;-68
2023/12/14 08:21:34;;;;;;;1.63;0.40;;;26.40;35.50;;;;;;5005497;28;20046;-72
2023/12/14 08:23:59;;;;;;;0.88;0.20;;;26.20;35.70;;;;;;5035139;28;20468;-69
2023/12/14 08:26:25;;;;;;;1.75;0.20;;;26.00;36.00;;;;;;5019424;28;20048;-72
2023/12/14 08:28:57;;;;;;;1.92;0.32;;;25.70;36.00;;;;;;5018844;28;20762;-71
2023/12/14 08:31:22;;;;;;;1.67;0.30;;;25.30;36.10;;;;;;4999055;28;20045;-69
2023/12/14 08:33:48;;;;;;;2.08;0.30;;;25.00;36.60;;;;;;4998882;28;20511;-74
2023/12/14 08:36:16;;;;;;;1.55;0.25;;;24.70;37.00;;;;;;4998724;28;20041;-70
2023/12/14 08:38:42;;;;;;;0.85;0.20;;;24.50;37.30;;;;;;5019353;28;20045;-73
2023/12/14 08:41:07;;;;;;;1.40;0.20;;;24.20;37.80;;;;;;5033298;28;20041;-69
2023/12/14 08:43:33;;;;;;;1.00;0.40;;;23.90;38.40;;;;;;5004122;28;20041;-69
2023/12/14 08:45:59;;;;;;;1.60;0.25;;;23.80;38.80;;;;;;5020369;28;20059;-70
2023/12/14 08:48:24;;;;;;;1.08;0.25;;;23.80;38.90;;;;;;5017988;28;20046;-70
2023/12/14 08:50:52;;;;;;;2.40;0.20;;;23.80;38.90;;;;;;5019613;28;20578;-70
2023/12/14 08:53:18;;;;;;;1.67;0.20;;;24.00;38.90;;;;;;5019449;28;20045;-71
2023/12/14 08:55:44;;;;;;;1.52;0.10;;;24.10;38.90;;;;;;5052241;28;20172;-69
2023/12/14 08:58:09;;;;;;;2.42;0.28;;;24.10;38.80;;;;;;5028305;28;20074;-68
2023/12/14 09:00:35;;;;;;;1.10;0.25;;;24.20;38.50;;;;;;4999332;28;20084;-68
2023/12/14 09:03:01;;;;;;;1.13;0.20;;;24.30;38.50;;;;;;5017076;28;20060;-67
2023/12/14 09:05:26;;;;;;;3.08;0.32;;;24.60;38.20;;;;;;4999870;28;20064;-68
2023/12/14 09:07:55;;;;;;;1.58;0.40;;;25.10;37.70;;;;;;5005038;28;20868;-74
2023/12/14 09:10:24;;;;;;;1.50;0.47;;;25.40;37.10;;;;;;5005828;28;20046;-73
2023/12/14 09:12:49;;;;;;;2.53;0.40;;;25.40;36.80;;;;;;5022557;28;20409;-70
2023/12/14 09:15:15;;;;;;;2.03;0.38;;;25.30;36.90;;;;;;5002471;28;20040;-70
2023/12/14 09:17:42;;;;;;;2.15;0.43;;;25.00;37.20;;;;;;5036193;28;21595;-70
2023/12/14 09:20:09;;;;;;;2.55;0.38;;;24.60;37.70;;;;;;5023142;28;20108;-70
2023/12/14 09:22:35;;;;;;;1.00;0.40;;;24.40;38.20;;;;;;5018823;28;20504;-70
2023/12/14 09:25:01;;;;;;;1.55;0.38;;;24.10;38.50;;;;;;5035359;28;20038;-68
2023/12/14 09:27:26;;;;;;;5.97;0.52;;;23.80;38.90;;;;;;5001652;28;20665;-71
2023/12/14 09:29:56;;;;;;;3.13;0.68;;;23.50;39.40;;;;;;4999788;28;20042;-68
2023/12/14 09:32:21;;;;;;;4.65;0.73;;;23.10;40.00;;;;;;5032915;28;20042;-72
2023/12/14 09:34:47;;;;;;;1.42;0.40;;;22.80;40.70;;;;;;4999765;28;20843;-73
2023/12/14 09:37:14;;;;;;;3.97;0.80;;;22.50;41.40;;;;;;5023606;28;20068;-69
2023/12/14 09:39:40;;;;;;;7.22;0.95;;;22.20;42.00;;;;;;4997292;28;20056;-71
2023/12/14 09:42:08;;;;;;;4.43;0.98;;;21.90;42.70;;;;;;5015406;28;20120;-72
2023/12/14 09:44:37;;;;;;;17.23;1.15;;;21.70;43.10;;;;;;5000363;28;20038;-73
2023/12/14 09:47:04;;;;;;;5.43;1.02;;;21.50;43.30;;;;;;4997502;28;20045;-70
2023/12/14 09:49:30;;;;;;;6.03;1.30;;;21.30;43.40;;;;;;5035226;28;20124;-68
2023/12/14 09:51:56;;;;;;;6.13;1.17;;;21.10;43.60;;;;;;5032667;28;20045;-68
2023/12/14 09:54:23;;;;;;;6.32;0.85;;;20.90;43.90;;;;;;5013663;28;20041;-70
2023/12/14 09:56:49;;;;;;;2.80;0.60;;;20.80;44.40;;;;;;5033631;28;20045;-68
2023/12/14 09:59:15;;;;;;;4.63;0.45;;;20.70;44.80;;;;;;5017609;28;20124;-70
2023/12/14 10:01:41;;;;;;;4.03;0.50;;;20.60;45.00;;;;;;5001164;28;20103;-70
2023/12/14 10:04:10;;;;;;;5.43;0.77;;;20.50;45.20;;;;;;5016919;28;20045;-69
2023/12/14 10:06:36;;;;;;;2.92;0.77;;;20.40;45.50;;;;;;4999499;28;20264;-68
2023/12/14 10:09:01;;;;;;;6.35;0.57;;;20.30;45.70;;;;;;5033770;28;20562;-71
2023/12/14 10:11:30;;;;;;;1.20;0.45;;;20.20;46.00;;;;;;5022989;28;20025;-71
2023/12/14 10:13:56;;;;;;;1.75;0.40;;;20.20;46.30;;;;;;4998054;28;20128;-68
2023/12/14 10:16:30;;;;;;;4.75;0.47;;;20.10;46.50;;;;;;5017203;28;20116;-71
2023/12/14 10:18:58;;;;;;;1.08;0.30;;;20.00;46.90;;;;;;5023321;28;20072;-71
2023/12/14 10:21:27;;;;;;;1.00;0.63;;;19.90;47.10;;;;;;5019721;28;20124;-71
2023/12/14 10:23:56;;;;;;;2.33;0.55;;;19.80;47.40;;;;;;5050599;28;20044;-71
2023/12/14 10:26:24;;;;;;;2.15;0.40;;;19.70;47.60;;;;;;5020407;28;20048;-72
2023/12/14 10:28:53;;;;;;;1.60;0.57;;;19.60;47.80;;;;;;5018314;28;20041;-71
2023/12/14 10:31:19;;;;;;;2.83;0.45;;;19.50;48.00;;;;;;5048866;28;20511;-72
2023/12/14 10:33:46;;;;;;;2.72;0.80;;;19.50;48.30;;;;;;5044225;28;20033;-71
2023/12/14 10:36:14;;;;;;;2.00;0.60;;;19.40;48.40;;;;;;5036877;28;20124;-71
2023/12/14 10:38:45;;;;;;;2.33;0.40;;;19.30;48.60;;;;;;5018901;28;20284;-72
2023/12/14 10:41:13;;;;;;;2.53;0.40;;;19.40;48.90;;;;;;5030975;28;20041;-72
2023/12/14 10:43:41;;;;;;;1.10;0.43;;;19.20;48.90;;;;;;5051820;28;20044;-71
2023/12/14 10:46:09;;;;;;;0.98;0.55;;;19.10;49.00;;;;;;5022245;28;20465;-71
2023/12/14 10:48:37;;;;;;;0.73;0.40;;;19.10;49.20;;;;;;5046098;28;20052;-70
2023/12/14 10:51:05;;;;;;;1.25;0.45;;;19.00;49.40;;;;;;5043501;28;20033;-68
2023/12/14 10:53:35;;;;;;;2.92;0.30;;;19.00;49.60;;;;;;5029213;28;20440;-76
2023/12/14 10:56:07;;;;;;;4.05;0.70;;;19.00;49.60;;;;;;5007395;28;20073;-76
2023/12/14 10:58:52;;;;;;;4.90;0.57;;;19.20;49.60;;;;;;5020442;28;20041;-71
2023/12/14 11:01:21;;;;;;;1.13;0.60;;;19.40;49.30;;;;;;5018713;28;20351;-79
2023/12/14 11:03:49;;;;;;;1.88;0.60;;;19.50;48.80;;;;;;5036491;28;20032;-77
2023/12/14 11:09:08;;;;;;;4.45;0.98;;;19.90;48.40;;;;;;5049638;27;20879;-70
2023/12/14 11:14:33;;;;;;;2.78;0.73;;;23.10;43.50;;;;;;5165423;27;20450;-71
2023/12/14 11:17:06;;;;;;;8.50;0.60;;;24.30;41.00;;;;;;5147553;27;20431;-70
2023/12/14 11:19:32;;;;;;;3.30;0.47;;;25.20;39.50;;;;;;5162383;27;20035;-70
2023/12/14 11:25:02;;;;;;;2.20;0.60;;;25.60;38.00;;;;;;5059769;27;20291;-70
2023/12/14 11:27:29;;;;;;;1.90;0.50;;;25.80;37.50;;;;;;5059009;28;20052;-70
2023/12/14 11:29:56;;;;;;;1.67;0.52;;;26.10;37.00;;;;;;5055895;28;20040;-72
2023/12/14 11:32:22;;;;;;;4.18;0.60;;;26.10;36.50;;;;;;5058512;28;20044;-73
2023/12/14 11:34:47;;;;;;;2.42;0.40;;;26.00;36.30;;;;;;5057075;28;20530;-72
2023/12/14 11:37:14;;;;;;;1.98;0.50;;;25.70;36.40;;;;;;5062793;28;20514;-72
2023/12/14 11:39:40;;;;;;;2.08;0.40;;;25.30;36.50;;;;;;5057327;28;20036;-72
2023/12/14 11:42:10;;;;;;;4.70;0.80;;;25.00;36.70;;;;;;5053590;28;20286;-71
2023/12/14 11:44:36;;;;;;;3.25;0.60;;;24.70;36.90;;;;;;5056047;28;20049;-72
2023/12/14 11:47:02;;;;;;;2.70;0.50;;;24.30;37.50;;;;;;5057242;28;20116;-69
2023/12/14 11:49:28;;;;;;;3.53;0.88;;;24.00;38.40;;;;;;5056307;28;20318;-69
2023/12/14 11:51:55;;;;;;;1.73;0.55;;;23.70;39.00;;;;;;5053488;28;20090;-71
2023/12/14 11:54:21;;;;;;;1.48;0.20;;;23.50;39.60;;;;;;5053626;28;20052;-71
2023/12/14 11:56:48;;;;;;;1.33;0.38;;;23.30;40.10;;;;;;5055723;28;20048;-68
2023/12/14 11:59:17;;;;;;;1.55;0.50;;;23.00;40.60;;;;;;5056335;28;20166;-71
2023/12/14 12:02:00;;;;;;;2.22;0.50;;;22.80;41.00;;;;;;5053722;28;20358;-67
2023/12/14 12:04:27;;;;;;;2.75;0.60;;;22.60;41.40;;;;;;5055084;28;20392;-70
2023/12/14 12:07:08;;;;;;;3.00;0.43;;;22.40;41.90;;;;;;5063825;28;20040;-67
2023/12/14 12:12:14;;;;;;;1.10;0.50;;;22.20;42.30;;;;;;5051027;28;20925;-69
2023/12/14 12:14:41;;;;;;;2.58;0.40;;;21.90;43.30;;;;;;5064208;28;20140;-71
2023/12/14 12:17:07;;;;;;;4.97;0.50;;;21.70;43.80;;;;;;5056034;28;20045;-66
2023/12/14 12:19:36;;;;;;;2.42;0.40;;;21.50;44.10;;;;;;5049898;28;20041;-65
2023/12/14 12:22:02;;;;;;;2.80;0.70;;;21.40;44.50;;;;;;5045088;28;20162;-66
2023/12/14 12:24:28;;;;;;;2.88;0.30;;;21.30;44.80;;;;;;5050310;28;20061;-73
2023/12/14 12:26:57;;;;;;;10.73;0.77;;;21.20;45.00;;;;;;5048030;28;20107;-66
2023/12/14 12:29:23;;;;;;;3.08;0.60;;;21.00;45.20;;;;;;5044212;28;20102;-76
2023/12/14 12:31:48;;;;;;;4.03;0.50;;;20.90;45.50;;;;;;5045051;28;20645;-67
2023/12/14 12:34:15;;;;;;;4.00;0.60;;;21.00;45.70;;;;;;5046380;28;20124;-68
2023/12/14 12:36:41;;;;;;;4.63;0.50;;;21.10;45.40;;;;;;5044691;28;20037;-66
2023/12/14 12:39:07;;;;;;;3.25;0.40;;;21.40;45.10;;;;;;5046861;28;20480;-66
2023/12/14 12:41:33;;;;;;;1.95;0.50;;;21.70;44.70;;;;;;5048049;28;20052;-66
2023/12/14 12:44:05;;;;;;;3.70;0.50;;;21.90;44.10;;;;;;5049651;28;20044;-65
2023/12/14 12:46:33;;;;;;;3.85;0.60;;;22.10;43.70;;;;;;5046076;28;20490;-64
2023/12/14 12:49:01;;;;;;;3.85;0.30;;;22.20;43.30;;;;;;5049413;28;20060;-65
2023/12/14 12:51:28;;;;;;;2.10;0.40;;;22.40;43.00;;;;;;5047337;28;20270;-69
2023/12/14 12:53:54;;;;;;;1.73;0.40;;;22.60;42.70;;;;;;5041171;28;20036;-64
2023/12/14 12:56:20;;;;;;;1.75;0.45;;;22.70;42.60;;;;;;5045434;28;20404;-66